sensor_id;sensor_type;location;lat;lon;timestamp;temperature;humidity
5605;DHT22;9297;47.258;11.362;2024-02-16T00:01:45;6.60;79.40
5605;DHT22;9297;47.258;11.362;2024-02-16T00:04:13;6.60;78.70
5605;DHT22;9297;47.258;11.362;2024-02-16T00:06:41;6.70;78.70
5605;DHT22;9297;47.258;11.362;2024-02-16T00:09:10;6.60;79.00
5605;DHT22;9297;47.258;11.362;2024-02-16T00:11:37;6.50;79.00
5605;DHT22;9297;47.258;11.362;2024-02-16T00:14:05;6.50;78.30
5605;DHT22;9297;47.258;11.362;2024-02-16T00:16:32;6.30;78.20
5605;DHT22;9297;47.258;11.362;2024-02-16T00:18:59;6.30;79.10
5605;DHT22;9297;47.258;11.362;2024-02-16T00:21:28;6.30;78.80
5605;DHT22;9297;47.258;11.362;2024-02-16T00:23:55;6.30;79.20
5605;DHT22;9297;47.258;11.362;2024-02-16T00:26:22;6.40;79.40
5605;DHT22;9297;47.258;11.362;2024-02-16T00:28:49;6.40;79.80
5605;DHT22;9297;47.258;11.362;2024-02-16T00:31:15;6.40;80.10
5605;DHT22;9297;47.258;11.362;2024-02-16T00:33:42;6.40;79.30
5605;DHT22;9297;47.258;11.362;2024-02-16T00:36:10;6.40;79.00
5605;DHT22;9297;47.258;11.362;2024-02-16T00:38:44;6.30;78.30
5605;DHT22;9297;47.258;11.362;2024-02-16T00:41:18;6.10;79.10
5605;DHT22;9297;47.258;11.362;2024-02-16T00:43:45;6.10;79.80
5605;DHT22;9297;47.258;11.362;2024-02-16T00:46:12;6.10;81.00
5605;DHT22;9297;47.258;11.362;2024-02-16T00:48:39;6.30;81.20
5605;DHT22;9297;47.258;11.362;2024-02-16T00:51:07;6.20;81.10
5605;DHT22;9297;47.258;11.362;2024-02-16T00:53:34;6.20;81.00
5605;DHT22;9297;47.258;11.362;2024-02-16T00:56:03;6.10;81.60
5605;DHT22;9297;47.258;11.362;2024-02-16T00:58:30;6.20;81.40
5605;DHT22;9297;47.258;11.362;2024-02-16T01:00:57;6.20;81.10
5605;DHT22;9297;47.258;11.362;2024-02-16T01:03:24;6.10;81.10
5605;DHT22;9297;47.258;11.362;2024-02-16T01:05:51;6.10;81.40
5605;DHT22;9297;47.258;11.362;2024-02-16T01:08:19;6.10;81.70
5605;DHT22;9297;47.258;11.362;2024-02-16T01:10:46;6.10;80.70
5605;DHT22;9297;47.258;11.362;2024-02-16T01:13:14;6.10;80.60
5605;DHT22;9297;47.258;11.362;2024-02-16T01:15:41;6.20;80.00
5605;DHT22;9297;47.258;11.362;2024-02-16T01:18:08;6.30;79.40
5605;DHT22;9297;47.258;11.362;2024-02-16T01:20:35;6.10;79.10
5605;DHT22;9297;47.258;11.362;2024-02-16T01:23:02;6.10;79.50
5605;DHT22;9297;47.258;11.362;2024-02-16T01:25:29;6.10;79.50
5605;DHT22;9297;47.258;11.362;2024-02-16T01:27:56;6.00;80.60
5605;DHT22;9297;47.258;11.362;2024-02-16T01:30:25;6.00;80.00
5605;DHT22;9297;47.258;11.362;2024-02-16T01:32:52;6.00;80.30
5605;DHT22;9297;47.258;11.362;2024-02-16T01:35:19;6.00;80.70
5605;DHT22;9297;47.258;11.362;2024-02-16T01:37:47;6.00;80.40
5605;DHT22;9297;47.258;11.362;2024-02-16T01:40:14;6.00;80.10
5605;DHT22;9297;47.258;11.362;2024-02-16T01:42:41;5.90;80.40
5605;DHT22;9297;47.258;11.362;2024-02-16T01:45:09;5.90;80.40
5605;DHT22;9297;47.258;11.362;2024-02-16T01:47:39;5.60;80.90
5605;DHT22;9297;47.258;11.362;2024-02-16T01:50:07;5.40;81.80
5605;DHT22;9297;47.258;11.362;2024-02-16T01:52:34;5.40;81.70
5605;DHT22;9297;47.258;11.362;2024-02-16T01:55:01;5.40;81.60
5605;DHT22;9297;47.258;11.362;2024-02-16T01:57:29;5.30;82.10
5605;DHT22;9297;47.258;11.362;2024-02-16T01:59:56;5.30;82.80
5605;DHT22;9297;47.258;11.362;2024-02-16T02:02:23;5.40;82.50
5605;DHT22;9297;47.258;11.362;2024-02-16T02:04:51;5.40;82.20
5605;DHT22;9297;47.258;11.362;2024-02-16T02:07:18;5.50;82.20
5605;DHT22;9297;47.258;11.362;2024-02-16T02:09:45;5.50;81.90
5605;DHT22;9297;47.258;11.362;2024-02-16T02:12:12;5.50;81.90
5605;DHT22;9297;47.258;11.362;2024-02-16T02:14:39;5.60;81.30
5605;DHT22;9297;47.258;11.362;2024-02-16T02:17:06;5.60;80.80
5605;DHT22;9297;47.258;11.362;2024-02-16T02:19:34;5.60;80.80
5605;DHT22;9297;47.258;11.362;2024-02-16T02:22:02;5.60;80.80
5605;DHT22;9297;47.258;11.362;2024-02-16T02:24:31;5.60;80.90
5605;DHT22;9297;47.258;11.362;2024-02-16T02:26:58;5.60;80.70
5605;DHT22;9297;47.258;11.362;2024-02-16T02:29:25;5.60;81.20
5605;DHT22;9297;47.258;11.362;2024-02-16T02:31:52;5.40;80.70
5605;DHT22;9297;47.258;11.362;2024-02-16T02:34:19;5.40;80.70
5605;DHT22;9297;47.258;11.362;2024-02-16T02:36:46;5.40;80.80
5605;DHT22;9297;47.258;11.362;2024-02-16T02:39:13;5.40;82.00
5605;DHT22;9297;47.258;11.362;2024-02-16T02:41:41;5.50;82.20
5605;DHT22;9297;47.258;11.362;2024-02-16T02:44:08;5.60;81.00
5605;DHT22;9297;47.258;11.362;2024-02-16T02:46:35;5.40;81.60
5605;DHT22;9297;47.258;11.362;2024-02-16T02:49:02;5.40;82.00
5605;DHT22;9297;47.258;11.362;2024-02-16T02:51:30;5.40;81.80
5605;DHT22;9297;47.258;11.362;2024-02-16T02:53:57;5.50;81.70
5605;DHT22;9297;47.258;11.362;2024-02-16T02:56:24;5.50;82.10
5605;DHT22;9297;47.258;11.362;2024-02-16T02:58:52;5.50;80.80
5605;DHT22;9297;47.258;11.362;2024-02-16T03:01:19;5.50;80.70
5605;DHT22;9297;47.258;11.362;2024-02-16T03:03:53;5.50;80.70
5605;DHT22;9297;47.258;11.362;2024-02-16T03:06:20;5.40;81.80
5605;DHT22;9297;47.258;11.362;2024-02-16T03:08:48;5.40;80.70
5605;DHT22;9297;47.258;11.362;2024-02-16T03:11:15;5.40;80.70
5605;DHT22;9297;47.258;11.362;2024-02-16T03:13:42;5.40;80.70
5605;DHT22;9297;47.258;11.362;2024-02-16T03:16:11;5.30;80.70
5605;DHT22;9297;47.258;11.362;2024-02-16T03:18:38;5.30;80.50
5605;DHT22;9297;47.258;11.362;2024-02-16T03:21:05;5.20;81.30
5605;DHT22;9297;47.258;11.362;2024-02-16T03:23:32;5.20;81.10
5605;DHT22;9297;47.258;11.362;2024-02-16T03:25:59;5.20;81.60
5605;DHT22;9297;47.258;11.362;2024-02-16T03:28:26;5.20;82.70
5605;DHT22;9297;47.258;11.362;2024-02-16T03:30:53;5.20;82.00
5605;DHT22;9297;47.258;11.362;2024-02-16T03:33:22;5.20;81.70
5605;DHT22;9297;47.258;11.362;2024-02-16T03:35:49;5.20;82.40
5605;DHT22;9297;47.258;11.362;2024-02-16T03:38:16;5.20;82.30
5605;DHT22;9297;47.258;11.362;2024-02-16T03:40:43;5.20;82.70
5605;DHT22;9297;47.258;11.362;2024-02-16T03:43:10;5.20;83.30
5605;DHT22;9297;47.258;11.362;2024-02-16T03:45:37;5.20;82.60
5605;DHT22;9297;47.258;11.362;2024-02-16T03:48:04;5.20;82.50
5605;DHT22;9297;47.258;11.362;2024-02-16T03:50:33;5.20;82.60
5605;DHT22;9297;47.258;11.362;2024-02-16T03:53:00;5.20;82.70
5605;DHT22;9297;47.258;11.362;2024-02-16T03:55:27;5.20;83.00
5605;DHT22;9297;47.258;11.362;2024-02-16T03:57:54;5.20;82.80
5605;DHT22;9297;47.258;11.362;2024-02-16T04:00:21;5.10;83.10
5605;DHT22;9297;47.258;11.362;2024-02-16T04:02:48;5.00;82.70
5605;DHT22;9297;47.258;11.362;2024-02-16T04:05:15;4.90;82.90
5605;DHT22;9297;47.258;11.362;2024-02-16T04:07:43;4.90;83.90
5605;DHT22;9297;47.258;11.362;2024-02-16T04:10:10;5.00;83.10
5605;DHT22;9297;47.258;11.362;2024-02-16T04:12:37;5.00;82.60
5605;DHT22;9297;47.258;11.362;2024-02-16T04:15:05;5.00;82.40
5605;DHT22;9297;47.258;11.362;2024-02-16T04:17:32;5.00;83.10
5605;DHT22;9297;47.258;11.362;2024-02-16T04:19:59;5.00;82.90
5605;DHT22;9297;47.258;11.362;2024-02-16T04:22:26;5.00;83.20
5605;DHT22;9297;47.258;11.362;2024-02-16T04:24:55;5.00;83.50
5605;DHT22;9297;47.258;11.362;2024-02-16T04:27:21;5.00;83.50
5605;DHT22;9297;47.258;11.362;2024-02-16T04:29:48;5.20;83.00
5605;DHT22;9297;47.258;11.362;2024-02-16T04:32:16;5.10;83.00
5605;DHT22;9297;47.258;11.362;2024-02-16T04:34:43;5.00;83.60
5605;DHT22;9297;47.258;11.362;2024-02-16T04:37:10;5.00;83.70
5605;DHT22;9297;47.258;11.362;2024-02-16T04:39:37;5.00;83.50
5605;DHT22;9297;47.258;11.362;2024-02-16T04:42:05;5.10;83.40
5605;DHT22;9297;47.258;11.362;2024-02-16T04:44:32;5.00;83.80
5605;DHT22;9297;47.258;11.362;2024-02-16T04:47:03;5.10;84.10
5605;DHT22;9297;47.258;11.362;2024-02-16T04:49:30;5.10;83.90
5605;DHT22;9297;47.258;11.362;2024-02-16T04:51:57;5.10;84.10
5605;DHT22;9297;47.258;11.362;2024-02-16T04:54:24;5.10;83.80
5605;DHT22;9297;47.258;11.362;2024-02-16T04:56:51;5.10;84.10
5605;DHT22;9297;47.258;11.362;2024-02-16T04:59:20;5.00;83.90
5605;DHT22;9297;47.258;11.362;2024-02-16T05:01:47;5.00;84.00
5605;DHT22;9297;47.258;11.362;2024-02-16T05:04:14;5.00;83.60
5605;DHT22;9297;47.258;11.362;2024-02-16T05:06:41;5.00;84.10
5605;DHT22;9297;47.258;11.362;2024-02-16T05:09:08;5.00;83.50
5605;DHT22;9297;47.258;11.362;2024-02-16T05:11:35;4.90;84.00
5605;DHT22;9297;47.258;11.362;2024-02-16T05:14:02;4.90;84.00
5605;DHT22;9297;47.258;11.362;2024-02-16T05:16:30;4.90;84.20
5605;DHT22;9297;47.258;11.362;2024-02-16T05:18:57;4.90;84.20
5605;DHT22;9297;47.258;11.362;2024-02-16T05:21:25;4.90;84.40
5605;DHT22;9297;47.258;11.362;2024-02-16T05:23:51;4.90;84.10
5605;DHT22;9297;47.258;11.362;2024-02-16T05:26:24;5.00;84.20
5605;DHT22;9297;47.258;11.362;2024-02-16T05:28:51;4.90;84.40
5605;DHT22;9297;47.258;11.362;2024-02-16T05:31:18;4.90;84.50
5605;DHT22;9297;47.258;11.362;2024-02-16T05:33:48;5.00;84.30
5605;DHT22;9297;47.258;11.362;2024-02-16T05:36:16;5.00;84.50
5605;DHT22;9297;47.258;11.362;2024-02-16T05:38:44;5.00;84.40
5605;DHT22;9297;47.258;11.362;2024-02-16T05:41:11;5.00;84.60
5605;DHT22;9297;47.258;11.362;2024-02-16T05:43:38;4.90;85.10
5605;DHT22;9297;47.258;11.362;2024-02-16T05:46:13;4.90;85.30
5605;DHT22;9297;47.258;11.362;2024-02-16T05:48:41;4.90;85.30
5605;DHT22;9297;47.258;11.362;2024-02-16T05:51:09;5.00;84.80
5605;DHT22;9297;47.258;11.362;2024-02-16T05:53:38;4.90;85.30
5605;DHT22;9297;47.258;11.362;2024-02-16T05:56:05;4.90;84.90
5605;DHT22;9297;47.258;11.362;2024-02-16T05:58:32;4.80;85.70
5605;DHT22;9297;47.258;11.362;2024-02-16T06:00:59;4.80;86.00
5605;DHT22;9297;47.258;11.362;2024-02-16T06:03:26;4.80;85.70
5605;DHT22;9297;47.258;11.362;2024-02-16T06:05:53;4.90;85.90
5605;DHT22;9297;47.258;11.362;2024-02-16T06:08:22;4.80;86.70
5605;DHT22;9297;47.258;11.362;2024-02-16T06:10:50;4.80;85.80
5605;DHT22;9297;47.258;11.362;2024-02-16T06:13:17;4.80;85.60
5605;DHT22;9297;47.258;11.362;2024-02-16T06:15:47;4.80;85.40
5605;DHT22;9297;47.258;11.362;2024-02-16T06:18:14;4.90;85.70
5605;DHT22;9297;47.258;11.362;2024-02-16T06:20:42;4.90;85.70
5605;DHT22;9297;47.258;11.362;2024-02-16T06:23:09;4.80;86.00
5605;DHT22;9297;47.258;11.362;2024-02-16T06:25:37;4.80;85.90
5605;DHT22;9297;47.258;11.362;2024-02-16T06:28:04;4.90;86.10
5605;DHT22;9297;47.258;11.362;2024-02-16T06:30:32;4.80;86.00
5605;DHT22;9297;47.258;11.362;2024-02-16T06:32:59;4.90;86.00
5605;DHT22;9297;47.258;11.362;2024-02-16T06:35:26;4.90;86.10
5605;DHT22;9297;47.258;11.362;2024-02-16T06:37:53;4.90;86.20
5605;DHT22;9297;47.258;11.362;2024-02-16T06:40:20;4.80;86.30
5605;DHT22;9297;47.258;11.362;2024-02-16T06:42:48;4.90;85.70
5605;DHT22;9297;47.258;11.362;2024-02-16T06:45:15;4.70;85.80
5605;DHT22;9297;47.258;11.362;2024-02-16T06:47:42;4.60;87.00
5605;DHT22;9297;47.258;11.362;2024-02-16T06:50:16;4.50;86.40
5605;DHT22;9297;47.258;11.362;2024-02-16T06:52:43;4.60;86.60
5605;DHT22;9297;47.258;11.362;2024-02-16T06:55:10;4.60;86.60
5605;DHT22;9297;47.258;11.362;2024-02-16T06:57:38;4.60;87.00
5605;DHT22;9297;47.258;11.362;2024-02-16T07:00:08;4.70;86.80
5605;DHT22;9297;47.258;11.362;2024-02-16T07:02:36;4.70;86.70
5605;DHT22;9297;47.258;11.362;2024-02-16T07:05:03;4.70;86.10
5605;DHT22;9297;47.258;11.362;2024-02-16T07:07:31;4.70;86.50
5605;DHT22;9297;47.258;11.362;2024-02-16T07:09:58;4.80;86.00
5605;DHT22;9297;47.258;11.362;2024-02-16T07:12:27;4.80;86.30
5605;DHT22;9297;47.258;11.362;2024-02-16T07:14:54;4.80;86.60
5605;DHT22;9297;47.258;11.362;2024-02-16T07:17:23;4.80;87.50
5605;DHT22;9297;47.258;11.362;2024-02-16T07:19:50;4.90;86.50
5605;DHT22;9297;47.258;11.362;2024-02-16T07:22:17;4.90;86.40
5605;DHT22;9297;47.258;11.362;2024-02-16T07:24:44;5.00;85.80
5605;DHT22;9297;47.258;11.362;2024-02-16T07:27:11;5.10;87.20
5605;DHT22;9297;47.258;11.362;2024-02-16T07:29:38;7.10;99.90
5605;DHT22;9297;47.258;11.362;2024-02-16T07:32:05;7.00;99.90
5605;DHT22;9297;47.258;11.362;2024-02-16T07:34:33;6.40;84.80
5605;DHT22;9297;47.258;11.362;2024-02-16T07:37:00;6.10;84.80
5605;DHT22;9297;47.258;11.362;2024-02-16T07:39:28;6.20;90.50
5605;DHT22;9297;47.258;11.362;2024-02-16T07:41:56;6.60;85.60
5605;DHT22;9297;47.258;11.362;2024-02-16T07:44:23;6.40;81.60
5605;DHT22;9297;47.258;11.362;2024-02-16T07:46:49;6.30;82.00
5605;DHT22;9297;47.258;11.362;2024-02-16T07:49:17;6.20;81.30
5605;DHT22;9297;47.258;11.362;2024-02-16T07:51:46;6.30;81.90
5605;DHT22;9297;47.258;11.362;2024-02-16T07:54:13;6.30;81.90
5605;DHT22;9297;47.258;11.362;2024-02-16T07:56:40;6.40;81.20
5605;DHT22;9297;47.258;11.362;2024-02-16T07:59:07;6.40;80.80
5605;DHT22;9297;47.258;11.362;2024-02-16T08:01:34;6.40;81.10
5605;DHT22;9297;47.258;11.362;2024-02-16T08:04:01;6.40;81.40
5605;DHT22;9297;47.258;11.362;2024-02-16T08:06:32;6.40;80.40
5605;DHT22;9297;47.258;11.362;2024-02-16T08:09:01;6.50;81.20
5605;DHT22;9297;47.258;11.362;2024-02-16T08:11:28;6.60;80.00
5605;DHT22;9297;47.258;11.362;2024-02-16T08:13:55;6.60;79.40
5605;DHT22;9297;47.258;11.362;2024-02-16T08:16:22;6.60;80.20
5605;DHT22;9297;47.258;11.362;2024-02-16T08:18:49;6.70;78.50
5605;DHT22;9297;47.258;11.362;2024-02-16T08:21:17;6.60;79.30
5605;DHT22;9297;47.258;11.362;2024-02-16T08:23:44;6.70;80.10
5605;DHT22;9297;47.258;11.362;2024-02-16T08:26:12;6.70;80.30
5605;DHT22;9297;47.258;11.362;2024-02-16T08:28:39;6.70;80.00
5605;DHT22;9297;47.258;11.362;2024-02-16T08:31:06;6.80;81.40
5605;DHT22;9297;47.258;11.362;2024-02-16T08:33:33;6.80;82.90
5605;DHT22;9297;47.258;11.362;2024-02-16T08:36:00;6.80;80.80
5605;DHT22;9297;47.258;11.362;2024-02-16T08:38:27;7.00;79.60
5605;DHT22;9297;47.258;11.362;2024-02-16T08:40:54;7.10;79.00
5605;DHT22;9297;47.258;11.362;2024-02-16T08:43:23;7.10;79.20
5605;DHT22;9297;47.258;11.362;2024-02-16T08:45:50;7.20;78.10
5605;DHT22;9297;47.258;11.362;2024-02-16T08:48:17;7.40;78.00
5605;DHT22;9297;47.258;11.362;2024-02-16T08:50:44;7.50;76.60
5605;DHT22;9297;47.258;11.362;2024-02-16T08:53:11;7.50;76.60
5605;DHT22;9297;47.258;11.362;2024-02-16T08:55:38;7.60;75.30
5605;DHT22;9297;47.258;11.362;2024-02-16T08:58:07;7.60;75.40
5605;DHT22;9297;47.258;11.362;2024-02-16T09:00:35;7.80;75.50
5605;DHT22;9297;47.258;11.362;2024-02-16T09:03:02;7.90;73.00
5605;DHT22;9297;47.258;11.362;2024-02-16T09:05:29;8.00;72.30
5605;DHT22;9297;47.258;11.362;2024-02-16T09:07:56;8.00;71.90
5605;DHT22;9297;47.258;11.362;2024-02-16T09:10:23;8.10;71.30
5605;DHT22;9297;47.258;11.362;2024-02-16T09:12:50;8.10;70.20
5605;DHT22;9297;47.258;11.362;2024-02-16T09:15:17;8.20;70.10
5605;DHT22;9297;47.258;11.362;2024-02-16T09:17:46;8.30;69.10
5605;DHT22;9297;47.258;11.362;2024-02-16T09:20:13;8.40;68.80
5605;DHT22;9297;47.258;11.362;2024-02-16T09:22:40;8.50;69.40
5605;DHT22;9297;47.258;11.362;2024-02-16T09:25:13;8.50;68.80
5605;DHT22;9297;47.258;11.362;2024-02-16T09:27:40;8.60;68.10
5605;DHT22;9297;47.258;11.362;2024-02-16T09:30:08;8.70;69.20
5605;DHT22;9297;47.258;11.362;2024-02-16T09:32:35;8.90;69.00
5605;DHT22;9297;47.258;11.362;2024-02-16T09:35:04;9.00;67.50
5605;DHT22;9297;47.258;11.362;2024-02-16T09:37:31;9.10;67.40
5605;DHT22;9297;47.258;11.362;2024-02-16T09:39:58;9.30;66.60
5605;DHT22;9297;47.258;11.362;2024-02-16T09:42:25;9.40;65.80
5605;DHT22;9297;47.258;11.362;2024-02-16T09:44:52;9.50;65.50
5605;DHT22;9297;47.258;11.362;2024-02-16T09:47:22;9.70;64.60
5605;DHT22;9297;47.258;11.362;2024-02-16T09:49:50;9.80;63.20
5605;DHT22;9297;47.258;11.362;2024-02-16T09:52:20;10.00;62.60
5605;DHT22;9297;47.258;11.362;2024-02-16T09:54:47;10.10;61.70
5605;DHT22;9297;47.258;11.362;2024-02-16T09:57:16;10.30;60.90
5605;DHT22;9297;47.258;11.362;2024-02-16T09:59:44;10.40;60.20
5605;DHT22;9297;47.258;11.362;2024-02-16T10:02:11;10.60;60.10
5605;DHT22;9297;47.258;11.362;2024-02-16T10:04:38;10.70;60.00
5605;DHT22;9297;47.258;11.362;2024-02-16T10:07:05;10.80;58.30
5605;DHT22;9297;47.258;11.362;2024-02-16T10:09:40;10.90;57.40
5605;DHT22;9297;47.258;11.362;2024-02-16T10:12:08;11.00;58.20
5605;DHT22;9297;47.258;11.362;2024-02-16T10:14:36;11.10;57.30
5605;DHT22;9297;47.258;11.362;2024-02-16T10:17:04;11.20;57.10
5605;DHT22;9297;47.258;11.362;2024-02-16T10:19:31;11.40;57.40
5605;DHT22;9297;47.258;11.362;2024-02-16T10:22:06;11.60;56.30
5605;DHT22;9297;47.258;11.362;2024-02-16T10:24:33;11.70;55.80
5605;DHT22;9297;47.258;11.362;2024-02-16T10:27:02;11.90;54.80
5605;DHT22;9297;47.258;11.362;2024-02-16T10:29:30;12.10;54.90
5605;DHT22;9297;47.258;11.362;2024-02-16T10:31:58;12.30;55.30
5605;DHT22;9297;47.258;11.362;2024-02-16T10:34:26;12.40;53.00
5605;DHT22;9297;47.258;11.362;2024-02-16T10:36:55;12.40;52.40
5605;DHT22;9297;47.258;11.362;2024-02-16T10:39:23;12.50;51.90
5605;DHT22;9297;47.258;11.362;2024-02-16T10:41:51;12.70;52.20
5605;DHT22;9297;47.258;11.362;2024-02-16T10:44:20;12.90;52.90
5605;DHT22;9297;47.258;11.362;2024-02-16T10:46:47;13.10;52.10
5605;DHT22;9297;47.258;11.362;2024-02-16T10:49:15;13.20;51.90
5605;DHT22;9297;47.258;11.362;2024-02-16T10:51:45;13.20;50.50
5605;DHT22;9297;47.258;11.362;2024-02-16T10:54:15;13.40;51.10
5605;DHT22;9297;47.258;11.362;2024-02-16T10:56:43;13.60;51.50
5605;DHT22;9297;47.258;11.362;2024-02-16T10:59:11;13.80;50.30
5605;DHT22;9297;47.258;11.362;2024-02-16T11:01:40;13.90;48.10
5605;DHT22;9297;47.258;11.362;2024-02-16T11:04:08;13.90;46.80
5605;DHT22;9297;47.258;11.362;2024-02-16T11:06:46;14.10;48.00
5605;DHT22;9297;47.258;11.362;2024-02-16T11:09:23;14.20;46.80
5605;DHT22;9297;47.258;11.362;2024-02-16T11:11:52;14.40;44.90
5605;DHT22;9297;47.258;11.362;2024-02-16T11:14:21;14.50;44.40
5605;DHT22;9297;47.258;11.362;2024-02-16T11:16:53;14.70;43.60
5605;DHT22;9297;47.258;11.362;2024-02-16T11:19:22;14.80;41.60
5605;DHT22;9297;47.258;11.362;2024-02-16T11:21:56;14.90;41.70
5605;DHT22;9297;47.258;11.362;2024-02-16T11:24:30;15.20;43.80
5605;DHT22;9297;47.258;11.362;2024-02-16T11:26:57;15.40;40.90
5605;DHT22;9297;47.258;11.362;2024-02-16T11:29:25;15.30;41.60
5605;DHT22;9297;47.258;11.362;2024-02-16T11:31:55;15.30;40.90
5605;DHT22;9297;47.258;11.362;2024-02-16T11:34:23;15.30;41.00
5605;DHT22;9297;47.258;11.362;2024-02-16T11:36:52;15.30;40.70
5605;DHT22;9297;47.258;11.362;2024-02-16T11:39:20;15.30;40.70
5605;DHT22;9297;47.258;11.362;2024-02-16T11:41:48;15.50;42.10
5605;DHT22;9297;47.258;11.362;2024-02-16T11:44:15;15.90;40.60
5605;DHT22;9297;47.258;11.362;2024-02-16T11:46:42;16.10;39.20
5605;DHT22;9297;47.258;11.362;2024-02-16T11:49:10;16.10;38.90
5605;DHT22;9297;47.258;11.362;2024-02-16T11:51:37;16.20;36.60
5605;DHT22;9297;47.258;11.362;2024-02-16T11:54:05;16.40;36.40
5605;DHT22;9297;47.258;11.362;2024-02-16T11:56:32;16.70;37.20
5605;DHT22;9297;47.258;11.362;2024-02-16T11:58:59;16.90;36.90
5605;DHT22;9297;47.258;11.362;2024-02-16T12:01:26;17.10;36.30
5605;DHT22;9297;47.258;11.362;2024-02-16T12:03:53;17.40;38.30
5605;DHT22;9297;47.258;11.362;2024-02-16T12:06:21;17.60;36.00
5605;DHT22;9297;47.258;11.362;2024-02-16T12:08:50;17.70;36.00
5605;DHT22;9297;47.258;11.362;2024-02-16T12:11:17;17.60;35.80
5605;DHT22;9297;47.258;11.362;2024-02-16T12:13:44;17.70;33.30
5605;DHT22;9297;47.258;11.362;2024-02-16T12:16:11;17.70;34.60
5605;DHT22;9297;47.258;11.362;2024-02-16T12:18:39;18.00;34.80
5605;DHT22;9297;47.258;11.362;2024-02-16T12:21:06;18.10;33.40
5605;DHT22;9297;47.258;11.362;2024-02-16T12:23:36;18.00;32.70
5605;DHT22;9297;47.258;11.362;2024-02-16T12:26:03;18.20;33.00
5605;DHT22;9297;47.258;11.362;2024-02-16T12:28:31;18.20;33.30
5605;DHT22;9297;47.258;11.362;2024-02-16T12:30:58;18.40;33.80
5605;DHT22;9297;47.258;11.362;2024-02-16T12:33:30;18.40;34.00
5605;DHT22;9297;47.258;11.362;2024-02-16T12:35:57;18.70;34.10
5605;DHT22;9297;47.258;11.362;2024-02-16T12:38:24;18.80;33.40
5605;DHT22;9297;47.258;11.362;2024-02-16T12:40:52;19.00;32.60
5605;DHT22;9297;47.258;11.362;2024-02-16T12:43:19;18.80;30.70
5605;DHT22;9297;47.258;11.362;2024-02-16T12:45:47;18.80;31.30
5605;DHT22;9297;47.258;11.362;2024-02-16T12:48:14;18.70;33.00
5605;DHT22;9297;47.258;11.362;2024-02-16T12:50:41;18.90;31.40
5605;DHT22;9297;47.258;11.362;2024-02-16T12:53:09;19.00;32.30
5605;DHT22;9297;47.258;11.362;2024-02-16T12:55:36;19.40;32.90
5605;DHT22;9297;47.258;11.362;2024-02-16T12:58:04;19.60;32.60
5605;DHT22;9297;47.258;11.362;2024-02-16T13:00:31;19.50;31.00
5605;DHT22;9297;47.258;11.362;2024-02-16T13:02:58;19.40;31.60
5605;DHT22;9297;47.258;11.362;2024-02-16T13:05:25;19.20;32.00
5605;DHT22;9297;47.258;11.362;2024-02-16T13:07:53;19.10;30.40
5605;DHT22;9297;47.258;11.362;2024-02-16T13:10:20;19.10;30.00
5605;DHT22;9297;47.258;11.362;2024-02-16T13:12:47;19.10;31.70
5605;DHT22;9297;47.258;11.362;2024-02-16T13:15:15;19.30;33.90
5605;DHT22;9297;47.258;11.362;2024-02-16T13:17:54;19.50;32.80
5605;DHT22;9297;47.258;11.362;2024-02-16T13:20:21;19.70;32.30
5605;DHT22;9297;47.258;11.362;2024-02-16T13:22:48;19.90;31.50
5605;DHT22;9297;47.258;11.362;2024-02-16T13:25:15;20.10;31.00
5605;DHT22;9297;47.258;11.362;2024-02-16T13:27:43;20.00;28.80
5605;DHT22;9297;47.258;11.362;2024-02-16T13:30:11;20.00;29.70
5605;DHT22;9297;47.258;11.362;2024-02-16T13:32:39;20.30;29.90
5605;DHT22;9297;47.258;11.362;2024-02-16T13:35:07;20.30;30.70
5605;DHT22;9297;47.258;11.362;2024-02-16T13:37:34;20.20;29.40
5605;DHT22;9297;47.258;11.362;2024-02-16T13:40:02;20.20;30.00
5605;DHT22;9297;47.258;11.362;2024-02-16T13:42:29;20.00;29.60
5605;DHT22;9297;47.258;11.362;2024-02-16T13:44:56;20.00;29.00
5605;DHT22;9297;47.258;11.362;2024-02-16T13:47:23;20.20;30.00
5605;DHT22;9297;47.258;11.362;2024-02-16T13:49:52;20.20;29.60
5605;DHT22;9297;47.258;11.362;2024-02-16T13:52:20;20.00;27.90
5605;DHT22;9297;47.258;11.362;2024-02-16T13:54:47;20.50;29.00
5605;DHT22;9297;47.258;11.362;2024-02-16T13:57:14;20.50;28.30
5605;DHT22;9297;47.258;11.362;2024-02-16T13:59:41;21.00;29.10
5605;DHT22;9297;47.258;11.362;2024-02-16T14:02:09;21.60;27.60
5605;DHT22;9297;47.258;11.362;2024-02-16T14:04:37;21.40;27.80
5605;DHT22;9297;47.258;11.362;2024-02-16T14:07:08;22.30;27.00
5605;DHT22;9297;47.258;11.362;2024-02-16T14:09:35;22.40;24.50
5605;DHT22;9297;47.258;11.362;2024-02-16T14:12:03;21.40;24.70
5605;DHT22;9297;47.258;11.362;2024-02-16T14:14:30;21.60;25.50
5605;DHT22;9297;47.258;11.362;2024-02-16T14:17:04;22.80;26.20
5605;DHT22;9297;47.258;11.362;2024-02-16T14:19:31;22.30;23.70
5605;DHT22;9297;47.258;11.362;2024-02-16T14:21:59;22.20;24.10
5605;DHT22;9297;47.258;11.362;2024-02-16T14:24:27;21.50;25.80
5605;DHT22;9297;47.258;11.362;2024-02-16T14:26:55;21.10;27.30
5605;DHT22;9297;47.258;11.362;2024-02-16T14:29:22;20.60;27.50
5605;DHT22;9297;47.258;11.362;2024-02-16T14:31:49;20.30;28.90
5605;DHT22;9297;47.258;11.362;2024-02-16T14:34:16;19.90;29.00
5605;DHT22;9297;47.258;11.362;2024-02-16T14:36:44;19.80;28.90
5605;DHT22;9297;47.258;11.362;2024-02-16T14:39:11;19.70;28.90
5605;DHT22;9297;47.258;11.362;2024-02-16T14:41:39;19.50;28.70
5605;DHT22;9297;47.258;11.362;2024-02-16T14:44:06;19.30;28.80
5605;DHT22;9297;47.258;11.362;2024-02-16T14:46:33;19.10;30.20
5605;DHT22;9297;47.258;11.362;2024-02-16T14:49:00;18.80;30.30
5605;DHT22;9297;47.258;11.362;2024-02-16T14:51:27;18.60;32.20
5605;DHT22;9297;47.258;11.362;2024-02-16T14:53:55;18.50;33.70
5605;DHT22;9297;47.258;11.362;2024-02-16T14:56:22;18.40;36.00
5605;DHT22;9297;47.258;11.362;2024-02-16T14:58:50;18.20;36.50
5605;DHT22;9297;47.258;11.362;2024-02-16T15:01:17;18.00;38.10
5605;DHT22;9297;47.258;11.362;2024-02-16T15:03:44;17.90;39.10
5605;DHT22;9297;47.258;11.362;2024-02-16T15:06:11;17.70;38.30
5605;DHT22;9297;47.258;11.362;2024-02-16T15:08:38;17.70;39.10
5605;DHT22;9297;47.258;11.362;2024-02-16T15:11:05;17.50;37.80
5605;DHT22;9297;47.258;11.362;2024-02-16T15:13:32;17.50;38.10
5605;DHT22;9297;47.258;11.362;2024-02-16T15:16:00;17.40;38.20
5605;DHT22;9297;47.258;11.362;2024-02-16T15:18:27;17.30;38.20
5605;DHT22;9297;47.258;11.362;2024-02-16T15:20:54;17.30;38.90
5605;DHT22;9297;47.258;11.362;2024-02-16T15:23:22;17.20;37.90
5605;DHT22;9297;47.258;11.362;2024-02-16T15:25:49;17.10;38.10
5605;DHT22;9297;47.258;11.362;2024-02-16T15:28:16;17.00;38.10
5605;DHT22;9297;47.258;11.362;2024-02-16T15:30:43;17.00;37.80
5605;DHT22;9297;47.258;11.362;2024-02-16T15:33:11;17.00;38.40
5605;DHT22;9297;47.258;11.362;2024-02-16T15:35:38;17.00;38.40
5605;DHT22;9297;47.258;11.362;2024-02-16T15:38:05;16.90;38.80
5605;DHT22;9297;47.258;11.362;2024-02-16T15:40:32;16.90;39.60
5605;DHT22;9297;47.258;11.362;2024-02-16T15:43:00;16.80;39.60
5605;DHT22;9297;47.258;11.362;2024-02-16T15:45:27;16.70;40.90
5605;DHT22;9297;47.258;11.362;2024-02-16T15:47:54;16.50;42.60
5605;DHT22;9297;47.258;11.362;2024-02-16T15:50:23;16.50;43.60
5605;DHT22;9297;47.258;11.362;2024-02-16T15:52:50;16.40;43.80
5605;DHT22;9297;47.258;11.362;2024-02-16T15:55:17;16.30;44.20
5605;DHT22;9297;47.258;11.362;2024-02-16T15:57:44;16.30;44.40